createdAt,value
2018-04-29T00:01:10.936Z,18.20
2018-04-29T00:03:39.001Z,18.22
2018-04-29T00:06:07.022Z,18.25
2018-04-29T00:08:35.076Z,18.22
2018-04-29T00:11:03.088Z,18.21
2018-04-29T00:13:31.416Z,18.24
2018-04-29T00:15:59.469Z,18.13
2018-04-29T00:18:27.466Z,18.06
2018-04-29T00:20:55.478Z,18.02
2018-04-29T00:23:23.609Z,18.08
2018-04-29T00:25:51.667Z,18.15
2018-04-29T00:28:19.693Z,18.13
2018-04-29T00:30:47.702Z,18.14
2018-04-29T00:33:15.722Z,18.11
2018-04-29T00:35:43.829Z,17.97
2018-04-29T00:38:11.876Z,17.78
2018-04-29T00:40:39.918Z,17.74
2018-04-29T00:43:07.902Z,17.23
2018-04-29T00:45:35.972Z,17.58
2018-04-29T00:48:03.964Z,17.06
2018-04-29T00:50:31.958Z,17.19
2018-04-29T00:52:59.879Z,17.48
2018-04-29T00:55:27.959Z,17.17
2018-04-29T00:57:56.026Z,17.29
2018-04-29T01:00:24.127Z,17.56
2018-04-29T01:02:52.187Z,17.36
2018-04-29T01:05:20.123Z,17.48
2018-04-29T01:07:48.126Z,17.50
2018-04-29T01:10:16.125Z,16.94
2018-04-29T01:12:44.144Z,16.14
2018-04-29T01:15:12.363Z,16.11
2018-04-29T01:17:40.405Z,16.46
2018-04-29T01:20:08.396Z,16.13
2018-04-29T01:22:36.392Z,16.13
2018-04-29T01:25:04.461Z,16.12
2018-04-29T01:27:32.521Z,16.81
2018-04-29T01:30:00.526Z,16.85
2018-04-29T01:32:28.491Z,16.54
2018-04-29T01:34:56.462Z,16.64
2018-04-29T01:37:24.434Z,16.71
2018-04-29T01:39:52.510Z,16.51
2018-04-29T01:42:20.476Z,16.40
2018-04-29T01:44:48.503Z,16.49
2018-04-29T01:47:16.483Z,16.68
2018-04-29T01:49:44.509Z,16.76
2018-04-29T01:52:12.541Z,16.82
2018-04-29T01:54:40.562Z,16.86
2018-04-29T01:57:08.619Z,16.27
2018-04-29T01:59:36.617Z,16.53
2018-04-29T02:02:04.669Z,16.71
2018-04-29T02:04:32.723Z,16.83
2018-04-29T02:07:00.746Z,16.79
2018-04-29T02:09:28.699Z,16.81
2018-04-29T02:11:56.697Z,16.74
2018-04-29T02:14:24.714Z,16.76
2018-04-29T02:16:53.028Z,16.70
2018-04-29T02:19:20.982Z,16.76
2018-04-29T02:21:48.947Z,16.73
2018-04-29T02:24:17.027Z,16.77
2018-04-29T02:26:45.051Z,16.38
2018-04-29T02:29:13.058Z,16.07
2018-04-29T02:31:41.115Z,16.42
2018-04-29T02:34:09.122Z,16.51
2018-04-29T02:36:37.217Z,16.51
2018-04-29T02:39:05.307Z,16.53
2018-04-29T02:41:33.364Z,16.67
2018-04-29T02:44:01.425Z,16.59
2018-04-29T02:46:29.428Z,16.59
2018-04-29T02:48:57.574Z,16.57
2018-04-29T02:51:25.568Z,16.53
2018-04-29T02:53:53.573Z,16.54
2018-04-29T02:56:21.628Z,16.51
2018-04-29T02:58:49.664Z,16.50
2018-04-29T03:04:00.082Z,16.61
2018-04-29T03:06:28.082Z,16.44
2018-04-29T03:08:56.102Z,15.45
2018-04-29T03:11:24.122Z,15.76
2018-04-29T03:13:52.158Z,16.08
2018-04-29T03:16:20.107Z,15.67
2018-04-29T03:18:48.504Z,15.93
2018-04-29T03:21:16.641Z,16.20
2018-04-29T03:23:44.629Z,16.17
2018-04-29T03:26:12.699Z,16.19
2018-04-29T03:28:40.734Z,16.21
2018-04-29T03:31:08.832Z,16.21
2018-04-29T03:33:36.829Z,16.28
2018-04-29T03:36:04.854Z,16.29
2018-04-29T03:38:32.892Z,16.28
2018-04-29T03:41:00.901Z,16.27
2018-04-29T03:43:28.930Z,16.31
2018-04-29T03:45:57.054Z,16.36
2018-04-29T03:48:25.081Z,15.41
2018-04-29T03:50:53.126Z,14.84
2018-04-29T03:53:21.169Z,14.90
2018-04-29T03:55:49.134Z,14.72
2018-04-29T03:58:29.043Z,14.71
2018-04-29T04:01:09.071Z,14.78
2018-04-29T04:03:44.528Z,14.76
2018-04-29T04:06:12.525Z,14.47
2018-04-29T04:08:40.501Z,14.62
2018-04-29T04:11:08.581Z,15.36
2018-04-29T04:13:36.574Z,15.78
2018-04-29T04:16:04.594Z,15.38
2018-04-29T04:18:32.610Z,15.54
2018-04-29T04:21:00.905Z,15.68
2018-04-29T04:23:29.041Z,15.82
2018-04-29T04:25:57.082Z,16.02
2018-04-29T04:28:25.131Z,16.22
2018-04-29T04:30:53.143Z,16.18
2018-04-29T04:33:21.177Z,16.32
2018-04-29T04:35:49.200Z,16.65
2018-04-29T04:38:17.261Z,16.81
2018-04-29T04:40:45.328Z,16.83
2018-04-29T04:43:13.355Z,16.92
2018-04-29T04:45:41.357Z,17.00
2018-04-29T04:48:09.299Z,17.15
2018-04-29T04:50:37.383Z,17.23
2018-04-29T04:53:05.432Z,17.33
2018-04-29T04:55:33.449Z,17.42
2018-04-29T04:58:01.522Z,16.72
2018-04-29T05:00:29.554Z,16.53
2018-04-29T05:02:57.529Z,16.30
2018-04-29T05:05:25.517Z,16.31
2018-04-29T05:07:53.500Z,15.75
2018-04-29T05:10:22.302Z,15.33
2018-04-29T05:12:50.488Z,15.40
2018-04-29T05:15:18.547Z,15.37
2018-04-29T05:17:46.590Z,15.29
2018-04-29T05:20:14.643Z,15.64
2018-04-29T05:22:42.867Z,15.62
2018-04-29T05:25:10.873Z,15.38
2018-04-29T05:27:38.931Z,15.49
2018-04-29T05:30:07.001Z,15.33
2018-04-29T05:32:35.095Z,15.50
2018-04-29T05:35:02.976Z,15.49
2018-04-29T05:37:31.072Z,16.22
2018-04-29T05:39:59.010Z,16.40
2018-04-29T05:42:27.014Z,16.82
2018-04-29T05:44:55.063Z,17.24
2018-04-29T05:47:23.122Z,17.68
2018-04-29T05:49:51.107Z,17.15
2018-04-29T05:52:19.157Z,17.78
2018-04-29T05:54:47.236Z,17.84
2018-04-29T05:57:15.321Z,18.27
2018-04-29T05:59:43.342Z,18.48
2018-04-29T06:02:11.450Z,18.72
2018-04-29T06:04:39.597Z,18.98
2018-04-29T06:07:07.599Z,19.30
2018-04-29T06:09:36.805Z,19.43
2018-04-29T06:12:04.867Z,19.28
2018-04-29T06:14:32.830Z,19.90
2018-04-29T06:17:00.802Z,20.55
2018-04-29T06:19:28.759Z,20.69
2018-04-29T06:21:56.830Z,20.27
2018-04-29T06:24:25.233Z,20.15
2018-04-29T06:26:53.247Z,20.02
2018-04-29T06:29:21.327Z,19.56
2018-04-29T06:31:49.360Z,20.33
2018-04-29T06:34:17.380Z,20.57
2018-04-29T06:36:45.333Z,20.49
2018-04-29T06:39:13.326Z,20.41
2018-04-29T06:41:41.410Z,20.44
2018-04-29T06:44:09.428Z,20.69
2018-04-29T06:46:37.476Z,20.66
2018-04-29T06:49:05.482Z,21.58
2018-04-29T06:51:33.591Z,21.97
2018-04-29T06:54:01.600Z,22.16
2018-04-29T06:56:29.578Z,23.20
2018-04-29T06:58:57.580Z,22.67
2018-04-29T07:01:25.622Z,23.16
2018-04-29T07:03:53.633Z,23.17
2018-04-29T07:06:21.654Z,23.22
2018-04-29T07:08:49.621Z,23.56
2018-04-29T07:11:17.695Z,24.04
2018-04-29T07:13:45.754Z,23.42
2018-04-29T07:16:13.832Z,23.33
2018-04-29T07:18:41.856Z,23.79
2018-04-29T07:21:09.922Z,22.91
2018-04-29T07:23:37.945Z,23.57
2018-04-29T07:26:06.327Z,24.21
2018-04-29T07:28:34.399Z,23.56
2018-04-29T07:31:02.378Z,23.17
2018-04-29T07:33:30.397Z,24.36
2018-04-29T07:35:58.447Z,25.04
2018-04-29T07:38:26.440Z,24.57
2018-04-29T07:40:54.459Z,24.80
2018-04-29T07:43:22.478Z,25.33
2018-04-29T07:45:50.540Z,26.36
2018-04-29T07:48:18.602Z,25.95
2018-04-29T07:50:46.626Z,27.13
2018-04-29T07:53:14.593Z,27.31
2018-04-29T07:55:42.568Z,27.84
2018-04-29T07:58:10.590Z,27.45
2018-04-29T08:00:38.692Z,27.14
2018-04-29T08:03:12.994Z,26.85
2018-04-29T08:05:40.986Z,27.83
2018-04-29T08:08:08.903Z,26.64
2018-04-29T08:10:36.888Z,26.26
2018-04-29T08:13:04.920Z,27.80
2018-04-29T08:15:33.053Z,27.60
2018-04-29T08:18:01.167Z,27.18
2018-04-29T08:20:29.187Z,28.13
2018-04-29T08:22:57.206Z,28.35
2018-04-29T08:25:25.253Z,29.65
2018-04-29T08:27:53.943Z,28.18
2018-04-29T08:30:21.961Z,28.85
2018-04-29T08:32:49.986Z,27.93
2018-04-29T08:35:17.923Z,28.30
2018-04-29T08:37:45.958Z,29.13
2018-04-29T08:40:14.002Z,30.30
2018-04-29T08:42:42.095Z,31.06
2018-04-29T08:45:10.134Z,29.54
2018-04-29T08:47:38.154Z,29.23
2018-04-29T08:50:06.212Z,30.13
2018-04-29T08:52:34.246Z,29.93
2018-04-29T08:55:02.320Z,30.51
2018-04-29T08:57:30.336Z,30.75
2018-04-29T08:59:58.428Z,31.14
2018-04-29T09:02:26.418Z,32.00
2018-04-29T09:04:54.411Z,32.55
2018-04-29T09:07:22.419Z,31.54
2018-04-29T09:09:50.363Z,30.46
2018-04-29T09:12:18.458Z,32.01
2018-04-29T09:14:46.504Z,32.43
2018-04-29T09:17:14.632Z,32.23
2018-04-29T09:19:42.691Z,32.25
2018-04-29T09:22:10.781Z,31.48
2018-04-29T09:24:38.798Z,30.94
2018-04-29T09:27:06.865Z,31.10
2018-04-29T09:29:35.345Z,30.99
2018-04-29T09:32:03.428Z,32.69
2018-04-29T09:34:31.479Z,33.04
2018-04-29T09:36:59.510Z,31.79
2018-04-29T09:39:27.484Z,33.41
2018-04-29T09:41:55.492Z,33.41
2018-04-29T09:44:23.500Z,32.03
2018-04-29T09:46:51.536Z,31.29
2018-04-29T09:49:19.563Z,32.11
2018-04-29T09:51:47.663Z,31.38
2018-04-29T09:54:15.635Z,31.98
2018-04-29T09:56:43.628Z,33.14
2018-04-29T09:59:11.645Z,33.41
2018-04-29T10:01:39.684Z,33.94
2018-04-29T10:04:07.705Z,33.65
2018-04-29T10:06:35.719Z,31.72
2018-04-29T10:09:03.923Z,33.46
2018-04-29T10:11:31.975Z,34.24
2018-04-29T10:13:59.991Z,34.82
2018-04-29T10:16:28.018Z,35.22
2018-04-29T10:18:56.090Z,34.62
2018-04-29T10:21:24.173Z,34.50
2018-04-29T10:23:52.227Z,33.30
2018-04-29T10:26:20.189Z,32.58
2018-04-29T10:28:48.218Z,33.36
2018-04-29T10:31:16.512Z,34.62
2018-04-29T10:33:44.559Z,34.94
2018-04-29T10:36:12.523Z,35.83
2018-04-29T10:38:40.526Z,36.02
2018-04-29T10:41:08.630Z,35.73
2018-04-29T10:43:36.606Z,35.81
2018-04-29T10:46:04.652Z,34.24
2018-04-29T10:48:32.637Z,33.04
2018-04-29T10:51:00.623Z,33.14
2018-04-29T10:53:28.598Z,32.63
2018-04-29T10:55:56.641Z,32.99
2018-04-29T10:58:24.593Z,33.13
2018-04-29T11:00:52.661Z,34.72
2018-04-29T11:03:20.693Z,35.17
2018-04-29T11:05:48.776Z,34.20
2018-04-29T11:08:16.736Z,34.10
2018-04-29T11:10:44.701Z,32.60
2018-04-29T11:13:12.732Z,32.39
2018-04-29T11:15:40.750Z,32.56
2018-04-29T11:18:08.880Z,31.95
2018-04-29T11:20:36.903Z,32.52
2018-04-29T11:23:04.984Z,32.22
2018-04-29T11:25:32.960Z,32.50
2018-04-29T11:28:00.971Z,33.21
2018-04-29T11:30:28.983Z,32.56
2018-04-29T11:32:57.471Z,32.61
2018-04-29T11:35:25.495Z,33.06
2018-04-29T11:37:53.622Z,33.37
2018-04-29T11:40:21.751Z,33.83
2018-04-29T11:42:49.759Z,34.69
2018-04-29T11:45:17.764Z,33.97
2018-04-29T11:47:45.797Z,34.14
2018-04-29T11:50:13.759Z,33.80
2018-04-29T11:52:41.728Z,32.33
2018-04-29T11:55:09.787Z,31.78
2018-04-29T11:57:37.790Z,32.06
2018-04-29T12:00:05.831Z,33.36
2018-04-29T12:02:33.919Z,34.03
2018-04-29T12:05:01.941Z,33.78
2018-04-29T12:07:30.025Z,34.42
2018-04-29T12:09:58.139Z,33.20
2018-04-29T12:12:26.173Z,33.18
2018-04-29T12:14:54.192Z,33.05
2018-04-29T12:17:22.260Z,32.71
2018-04-29T12:19:50.286Z,32.20
2018-04-29T12:22:18.280Z,31.88
2018-04-29T12:24:46.716Z,32.40
2018-04-29T12:27:15.039Z,32.80
2018-04-29T12:29:43.055Z,32.21
2018-04-29T12:32:11.083Z,32.52
2018-04-29T12:34:39.346Z,33.09
2018-04-29T12:37:07.303Z,31.46
2018-04-29T12:39:35.315Z,32.61
2018-04-29T12:42:03.408Z,33.10
2018-04-29T12:44:31.428Z,33.29
2018-04-29T12:46:59.453Z,33.35
2018-04-29T12:49:27.462Z,32.04
2018-04-29T12:51:55.516Z,31.99
2018-04-29T12:54:23.562Z,31.74
2018-04-29T12:56:51.555Z,31.69
2018-04-29T12:59:19.559Z,31.59
2018-04-29T13:01:47.588Z,31.01
2018-04-29T13:04:15.623Z,30.68
2018-04-29T13:06:43.732Z,31.33
2018-04-29T13:09:11.728Z,31.21
2018-04-29T13:11:39.717Z,31.00
2018-04-29T13:14:07.738Z,29.86
2018-04-29T13:16:35.729Z,29.04
2018-04-29T13:19:03.728Z,29.83
2018-04-29T13:21:31.755Z,30.20
2018-04-29T13:23:59.760Z,29.98
2018-04-29T13:26:27.771Z,29.30
2018-04-29T13:28:55.769Z,28.85
2018-04-29T13:31:23.785Z,28.77
2018-04-29T13:33:51.746Z,29.42
2018-04-29T13:36:20.069Z,28.68
2018-04-29T13:38:48.103Z,28.79
2018-04-29T13:41:16.109Z,29.05
2018-04-29T13:43:44.091Z,28.54
2018-04-29T13:46:12.075Z,28.76
2018-04-29T13:48:40.069Z,29.40
2018-04-29T13:51:08.026Z,29.04
2018-04-29T13:53:36.074Z,28.42
2018-04-29T13:56:04.100Z,28.88
2018-04-29T13:58:32.239Z,29.22
2018-04-29T14:01:00.206Z,28.68
2018-04-29T14:03:28.361Z,28.88
2018-04-29T14:05:56.400Z,28.91
2018-04-29T14:08:24.565Z,28.44
2018-04-29T14:10:52.539Z,28.45
2018-04-29T14:13:20.548Z,28.31
2018-04-29T14:15:48.547Z,28.56
2018-04-29T14:18:16.518Z,28.02
2018-04-29T14:20:44.471Z,28.07
2018-04-29T14:23:12.467Z,27.98
2018-04-29T14:25:40.458Z,27.03
2018-04-29T14:28:08.505Z,27.48
2018-04-29T14:30:36.526Z,27.88
2018-04-29T14:33:04.551Z,27.95
2018-04-29T14:35:32.571Z,27.87
2018-04-29T14:38:00.777Z,27.52
2018-04-29T14:40:28.830Z,28.00
2018-04-29T14:42:56.894Z,27.65
2018-04-29T14:45:24.971Z,27.02
2018-04-29T14:47:52.980Z,26.87
2018-04-29T14:50:21.082Z,26.93
2018-04-29T14:52:49.088Z,27.27
2018-04-29T14:55:17.121Z,27.01
2018-04-29T14:57:45.129Z,26.96
2018-04-29T15:00:13.182Z,26.70
2018-04-29T15:02:41.207Z,26.59
2018-04-29T15:05:09.229Z,26.37
2018-04-29T15:07:37.208Z,26.42
2018-04-29T15:10:05.263Z,26.46
2018-04-29T15:12:33.340Z,26.54
2018-04-29T15:15:01.442Z,26.86
2018-04-29T15:17:29.500Z,26.53
2018-04-29T15:19:57.602Z,26.75
2018-04-29T15:22:25.595Z,26.78
2018-04-29T15:24:53.737Z,26.86
2018-04-29T15:27:21.770Z,26.66
2018-04-29T15:29:49.789Z,27.04
2018-04-29T15:32:17.761Z,26.30
2018-04-29T15:34:45.770Z,26.45
2018-04-29T15:37:13.775Z,26.32
2018-04-29T15:39:42.171Z,26.33
2018-04-29T15:42:10.303Z,26.60
2018-04-29T15:44:38.347Z,26.59
2018-04-29T15:47:06.528Z,26.78
2018-04-29T15:49:34.535Z,26.66
2018-04-29T15:52:02.540Z,26.32
2018-04-29T15:54:30.594Z,26.58
2018-04-29T15:56:58.608Z,25.90
2018-04-29T15:59:26.609Z,25.35
2018-04-29T16:01:54.612Z,25.47
2018-04-29T16:04:22.609Z,25.26
2018-04-29T16:06:50.649Z,25.33
2018-04-29T16:09:18.691Z,25.13
2018-04-29T16:11:46.782Z,25.31
2018-04-29T16:14:14.772Z,25.07
2018-04-29T16:16:42.834Z,25.23
2018-04-29T16:19:10.857Z,24.97
2018-04-29T16:21:38.900Z,24.76
2018-04-29T16:24:06.916Z,24.94
2018-04-29T16:26:34.878Z,24.82
2018-04-29T16:29:02.924Z,24.48
2018-04-29T16:31:30.929Z,24.60
2018-04-29T16:33:58.980Z,24.77
2018-04-29T16:36:27.014Z,24.96
2018-04-29T16:38:55.017Z,24.52
2018-04-29T16:41:23.321Z,24.21
2018-04-29T16:43:51.271Z,24.30
2018-04-29T16:46:19.279Z,24.07
2018-04-29T16:48:47.289Z,24.28
2018-04-29T16:51:15.312Z,24.23
2018-04-29T16:53:43.298Z,24.45
2018-04-29T16:56:11.367Z,24.32
2018-04-29T16:58:39.295Z,24.10
2018-04-29T17:01:07.301Z,24.30
2018-04-29T17:03:35.350Z,24.23
2018-04-29T17:06:03.380Z,24.26
2018-04-29T17:08:31.445Z,24.22
2018-04-29T17:10:59.528Z,24.13
2018-04-29T17:13:27.585Z,23.94
2018-04-29T17:15:55.662Z,23.59
2018-04-29T17:18:23.669Z,23.72
2018-04-29T17:20:51.711Z,23.68
2018-04-29T17:23:19.858Z,23.58
2018-04-29T17:25:47.903Z,23.48
2018-04-29T17:28:15.869Z,22.97
2018-04-29T17:30:43.885Z,22.60
2018-04-29T17:33:11.870Z,21.86
2018-04-29T17:35:39.881Z,21.90
2018-04-29T17:38:07.908Z,22.36
2018-04-29T17:40:35.962Z,22.52
2018-04-29T17:43:04.275Z,21.38
2018-04-29T17:45:32.236Z,21.28
2018-04-29T17:48:00.285Z,21.97
2018-04-29T17:50:28.311Z,22.30
2018-04-29T17:52:56.319Z,22.29
2018-04-29T17:55:24.376Z,22.28
2018-04-29T17:57:52.446Z,22.33
2018-04-29T18:00:20.433Z,22.45
2018-04-29T18:02:48.498Z,22.51
2018-04-29T18:05:16.595Z,21.95
2018-04-29T18:07:44.586Z,21.86
2018-04-29T18:10:12.551Z,22.01
2018-04-29T18:12:40.557Z,22.12
2018-04-29T18:15:08.547Z,21.93
2018-04-29T18:17:36.555Z,21.22
2018-04-29T18:20:04.586Z,21.66
2018-04-29T18:22:32.611Z,21.72
2018-04-29T18:25:00.659Z,21.80
2018-04-29T18:27:28.818Z,21.93
2018-04-29T18:29:56.923Z,21.96
2018-04-29T18:32:24.926Z,21.69
2018-04-29T18:34:53.059Z,21.03
2018-04-29T18:37:20.965Z,20.89
2018-04-29T18:39:48.988Z,21.23
2018-04-29T18:42:16.984Z,21.24
2018-04-29T18:44:45.590Z,21.31
2018-04-29T18:47:13.541Z,21.48
2018-04-29T18:49:41.535Z,21.53
2018-04-29T18:52:09.529Z,21.47
2018-04-29T18:54:37.554Z,21.23
2018-04-29T18:57:05.559Z,21.28
2018-04-29T18:59:33.553Z,20.65
2018-04-29T19:02:01.559Z,20.71
2018-04-29T19:04:29.578Z,21.00
2018-04-29T19:06:57.603Z,20.80
2018-04-29T19:09:25.620Z,20.99
2018-04-29T19:11:53.832Z,20.93
2018-04-29T19:14:21.828Z,20.99
2018-04-29T19:16:49.854Z,21.08
2018-04-29T19:19:17.870Z,21.10
2018-04-29T19:21:45.877Z,21.04
2018-04-29T19:24:14.003Z,21.02
2018-04-29T19:26:41.960Z,20.96
2018-04-29T19:29:10.009Z,20.95
2018-04-29T19:31:38.082Z,20.72
2018-04-29T19:34:06.130Z,20.71
2018-04-29T19:36:34.110Z,20.65
2018-04-29T19:39:02.117Z,20.57
2018-04-29T19:41:30.160Z,20.30
2018-04-29T19:43:58.238Z,20.29
2018-04-29T19:46:26.717Z,20.13
2018-04-29T19:48:54.762Z,20.13
2018-04-29T19:51:22.740Z,20.05
2018-04-29T19:53:50.725Z,19.90
2018-04-29T19:56:19.267Z,19.27
2018-04-29T19:58:47.318Z,19.63
2018-04-29T20:01:15.334Z,19.80
2018-04-29T20:03:43.329Z,19.76
2018-04-29T20:06:11.493Z,19.99
2018-04-29T20:08:39.513Z,19.63
2018-04-29T20:11:07.468Z,20.02
2018-04-29T20:13:35.487Z,20.09
2018-04-29T20:16:03.513Z,20.00
2018-04-29T20:18:31.519Z,20.15
2018-04-29T20:20:59.472Z,20.14
2018-04-29T20:23:27.535Z,20.28
2018-04-29T20:25:55.474Z,20.24
2018-04-29T20:28:23.497Z,20.22
2018-04-29T20:30:51.500Z,20.20
2018-04-29T20:33:19.520Z,20.21
2018-04-29T20:35:47.546Z,20.19
2018-04-29T20:38:15.585Z,20.15
2018-04-29T20:40:43.658Z,20.21
2018-04-29T20:43:11.755Z,20.23
2018-04-29T20:45:39.760Z,20.20
2018-04-29T20:48:08.137Z,20.16
2018-04-29T20:50:36.182Z,20.08
2018-04-29T20:53:04.157Z,19.96
2018-04-29T20:55:32.202Z,19.95
2018-04-29T20:58:00.294Z,19.95
2018-04-29T21:00:28.332Z,19.72
2018-04-29T21:02:56.383Z,19.82
2018-04-29T21:05:24.331Z,19.84
2018-04-29T21:07:52.420Z,19.83
2018-04-29T21:10:20.447Z,19.81
2018-04-29T21:12:48.470Z,19.33
2018-04-29T21:15:16.533Z,19.18
2018-04-29T21:17:44.498Z,19.38
2018-04-29T21:20:12.611Z,19.52
2018-04-29T21:22:40.596Z,19.57
2018-04-29T21:25:08.623Z,19.62
2018-04-29T21:27:36.690Z,19.49
2018-04-29T21:30:04.732Z,18.99
2018-04-29T21:32:32.821Z,19.16
2018-04-29T21:35:00.838Z,19.24
2018-04-29T21:37:28.879Z,19.33
2018-04-29T21:39:56.872Z,19.35
2018-04-29T21:42:24.913Z,19.28
2018-04-29T21:44:52.937Z,19.24
2018-04-29T21:47:20.943Z,19.25
2018-04-29T21:49:49.334Z,19.27
2018-04-29T21:52:17.361Z,19.17
2018-04-29T21:54:45.351Z,19.21
2018-04-29T21:57:13.331Z,19.02
2018-04-29T21:59:41.333Z,19.09
2018-04-29T22:02:09.418Z,19.04
2018-04-29T22:04:37.422Z,19.08
2018-04-29T22:07:05.453Z,19.07
2018-04-29T22:09:33.499Z,18.61
2018-04-29T22:12:01.459Z,18.70
2018-04-29T22:14:29.518Z,18.90
2018-04-29T22:16:57.634Z,18.95
2018-04-29T22:19:25.673Z,18.95
2018-04-29T22:21:53.686Z,19.06
2018-04-29T22:24:21.730Z,18.35
2018-04-29T22:26:49.747Z,18.28
2018-04-29T22:29:17.798Z,18.17
2018-04-29T22:31:45.819Z,17.76
2018-04-29T22:34:13.875Z,17.60
2018-04-29T22:36:41.914Z,17.21
2018-04-29T22:39:09.956Z,17.03
2018-04-29T22:41:38.017Z,17.46
2018-04-29T22:44:06.199Z,17.67
2018-04-29T22:46:34.222Z,17.29
2018-04-29T22:49:02.229Z,17.33
2018-04-29T22:51:30.493Z,17.72
2018-04-29T22:53:58.542Z,18.15
2018-04-29T22:56:26.509Z,17.99
2018-04-29T22:58:54.552Z,18.14
2018-04-29T23:01:22.621Z,18.22
2018-04-29T23:03:50.689Z,18.25
2018-04-29T23:06:18.677Z,18.13
2018-04-29T23:08:46.701Z,18.25
2018-04-29T23:11:14.707Z,18.35
2018-04-29T23:13:42.734Z,18.31
2018-04-29T23:16:10.735Z,18.34
2018-04-29T23:18:38.767Z,18.36
2018-04-29T23:21:06.783Z,18.35
2018-04-29T23:23:34.871Z,18.33
2018-04-29T23:26:02.957Z,17.80
2018-04-29T23:28:30.949Z,18.09
2018-04-29T23:30:59.007Z,18.09
2018-04-29T23:33:27.077Z,18.20
2018-04-29T23:35:55.106Z,18.31
2018-04-29T23:38:23.039Z,18.24
2018-04-29T23:40:51.029Z,18.14
2018-04-29T23:43:19.117Z,18.12
2018-04-29T23:45:47.149Z,18.07
2018-04-29T23:48:15.161Z,18.13
2018-04-29T23:50:43.186Z,18.16
2018-04-29T23:53:11.368Z,18.13
2018-04-29T23:55:39.346Z,18.13
2018-04-29T23:58:07.309Z,18.01
